sensor_id;sensor_type;location;lat;lon;timestamp;temperature;humidity
13892;DHT22;7016;48.172;8.058;2023-05-29T00:00:07;14.80;99.90
13892;DHT22;7016;48.172;8.058;2023-05-29T00:02:53;14.60;99.90
13892;DHT22;7016;48.172;8.058;2023-05-29T00:05:39;14.70;99.90
13892;DHT22;7016;48.172;8.058;2023-05-29T00:08:26;14.60;99.90
13892;DHT22;7016;48.172;8.058;2023-05-29T00:11:13;14.50;99.90
13892;DHT22;7016;48.172;8.058;2023-05-29T00:13:59;14.50;99.90
13892;DHT22;7016;48.172;8.058;2023-05-29T00:16:46;14.50;99.90
13892;DHT22;7016;48.172;8.058;2023-05-29T00:19:36;14.30;99.90
13892;DHT22;7016;48.172;8.058;2023-05-29T00:22:22;14.30;99.90
13892;DHT22;7016;48.172;8.058;2023-05-29T00:25:08;14.20;99.90
13892;DHT22;7016;48.172;8.058;2023-05-29T00:27:54;14.20;99.90
13892;DHT22;7016;48.172;8.058;2023-05-29T00:30:40;14.20;99.90
13892;DHT22;7016;48.172;8.058;2023-05-29T00:33:27;14.20;99.90
13892;DHT22;7016;48.172;8.058;2023-05-29T00:36:13;14.10;99.90
13892;DHT22;7016;48.172;8.058;2023-05-29T00:38:59;14.20;99.90
13892;DHT22;7016;48.172;8.058;2023-05-29T00:41:45;14.10;99.90
13892;DHT22;7016;48.172;8.058;2023-05-29T00:44:36;14.00;99.90
13892;DHT22;7016;48.172;8.058;2023-05-29T00:47:22;14.10;99.90
13892;DHT22;7016;48.172;8.058;2023-05-29T00:50:10;14.10;99.90
13892;DHT22;7016;48.172;8.058;2023-05-29T00:52:57;14.00;99.90
13892;DHT22;7016;48.172;8.058;2023-05-29T00:55:44;13.90;99.90
13892;DHT22;7016;48.172;8.058;2023-05-29T00:58:31;13.90;99.90
13892;DHT22;7016;48.172;8.058;2023-05-29T01:01:18;13.90;99.90
13892;DHT22;7016;48.172;8.058;2023-05-29T01:04:07;13.90;99.90
13892;DHT22;7016;48.172;8.058;2023-05-29T01:06:55;13.90;99.90
13892;DHT22;7016;48.172;8.058;2023-05-29T01:09:42;13.90;99.90
13892;DHT22;7016;48.172;8.058;2023-05-29T01:12:47;13.80;99.90
13892;DHT22;7016;48.172;8.058;2023-05-29T01:15:42;13.90;99.90
13892;DHT22;7016;48.172;8.058;2023-05-29T01:19:00;13.90;99.90
13892;DHT22;7016;48.172;8.058;2023-05-29T01:22:12;13.80;99.90
13892;DHT22;7016;48.172;8.058;2023-05-29T01:25:21;13.70;99.90
13892;DHT22;7016;48.172;8.058;2023-05-29T01:28:11;13.70;99.90
13892;DHT22;7016;48.172;8.058;2023-05-29T01:31:00;13.50;99.90
13892;DHT22;7016;48.172;8.058;2023-05-29T01:33:58;13.50;99.90
13892;DHT22;7016;48.172;8.058;2023-05-29T01:36:45;13.50;99.90
13892;DHT22;7016;48.172;8.058;2023-05-29T01:39:35;13.40;99.90
13892;DHT22;7016;48.172;8.058;2023-05-29T01:42:22;13.50;99.90
13892;DHT22;7016;48.172;8.058;2023-05-29T01:45:08;13.40;99.90
13892;DHT22;7016;48.172;8.058;2023-05-29T01:47:55;13.50;99.90
13892;DHT22;7016;48.172;8.058;2023-05-29T01:50:42;13.50;99.90
13892;DHT22;7016;48.172;8.058;2023-05-29T01:53:29;13.40;99.90
13892;DHT22;7016;48.172;8.058;2023-05-29T01:56:16;13.50;99.90
13892;DHT22;7016;48.172;8.058;2023-05-29T01:59:03;13.50;99.90
13892;DHT22;7016;48.172;8.058;2023-05-29T02:01:49;13.30;99.90
13892;DHT22;7016;48.172;8.058;2023-05-29T02:04:36;13.40;99.90
13892;DHT22;7016;48.172;8.058;2023-05-29T02:07:22;13.10;99.90
13892;DHT22;7016;48.172;8.058;2023-05-29T02:10:08;13.10;99.90
13892;DHT22;7016;48.172;8.058;2023-05-29T02:12:54;13.10;99.90
13892;DHT22;7016;48.172;8.058;2023-05-29T02:15:41;13.10;99.90
13892;DHT22;7016;48.172;8.058;2023-05-29T02:18:27;13.20;99.90
13892;DHT22;7016;48.172;8.058;2023-05-29T02:21:13;13.10;99.90
13892;DHT22;7016;48.172;8.058;2023-05-29T02:23:59;13.00;99.90
13892;DHT22;7016;48.172;8.058;2023-05-29T02:26:47;13.00;99.90
13892;DHT22;7016;48.172;8.058;2023-05-29T02:29:34;13.00;99.90
13892;DHT22;7016;48.172;8.058;2023-05-29T02:32:20;13.10;99.90
13892;DHT22;7016;48.172;8.058;2023-05-29T02:35:08;13.10;99.90
13892;DHT22;7016;48.172;8.058;2023-05-29T02:37:54;13.00;99.90
13892;DHT22;7016;48.172;8.058;2023-05-29T02:40:40;13.10;99.90
13892;DHT22;7016;48.172;8.058;2023-05-29T02:43:27;13.10;99.90
13892;DHT22;7016;48.172;8.058;2023-05-29T02:46:13;13.10;99.90
13892;DHT22;7016;48.172;8.058;2023-05-29T02:48:59;13.10;99.90
13892;DHT22;7016;48.172;8.058;2023-05-29T02:51:45;13.00;99.90
13892;DHT22;7016;48.172;8.058;2023-05-29T02:54:31;12.90;99.90
13892;DHT22;7016;48.172;8.058;2023-05-29T02:57:17;13.00;99.90
13892;DHT22;7016;48.172;8.058;2023-05-29T03:00:04;12.80;99.90
13892;DHT22;7016;48.172;8.058;2023-05-29T03:02:54;12.80;99.90
13892;DHT22;7016;48.172;8.058;2023-05-29T03:05:41;12.80;99.90
13892;DHT22;7016;48.172;8.058;2023-05-29T03:08:27;12.70;99.90
13892;DHT22;7016;48.172;8.058;2023-05-29T03:11:14;12.60;99.90
13892;DHT22;7016;48.172;8.058;2023-05-29T03:14:01;12.50;99.90
13892;DHT22;7016;48.172;8.058;2023-05-29T03:16:48;12.50;99.90
13892;DHT22;7016;48.172;8.058;2023-05-29T03:19:35;12.50;99.90
13892;DHT22;7016;48.172;8.058;2023-05-29T03:22:21;12.40;99.90
13892;DHT22;7016;48.172;8.058;2023-05-29T03:25:07;12.40;99.90
13892;DHT22;7016;48.172;8.058;2023-05-29T03:27:54;12.30;99.90
13892;DHT22;7016;48.172;8.058;2023-05-29T03:30:40;12.40;99.90
13892;DHT22;7016;48.172;8.058;2023-05-29T03:33:26;12.40;99.90
13892;DHT22;7016;48.172;8.058;2023-05-29T03:36:12;12.40;99.90
13892;DHT22;7016;48.172;8.058;2023-05-29T03:38:59;12.40;99.90
13892;DHT22;7016;48.172;8.058;2023-05-29T03:41:45;12.30;99.90
13892;DHT22;7016;48.172;8.058;2023-05-29T03:44:31;12.30;99.90
13892;DHT22;7016;48.172;8.058;2023-05-29T03:47:17;12.30;99.90
13892;DHT22;7016;48.172;8.058;2023-05-29T03:50:04;12.20;99.90
13892;DHT22;7016;48.172;8.058;2023-05-29T03:52:50;12.30;99.90
13892;DHT22;7016;48.172;8.058;2023-05-29T03:55:36;12.20;99.90
13892;DHT22;7016;48.172;8.058;2023-05-29T03:58:22;12.20;99.90
13892;DHT22;7016;48.172;8.058;2023-05-29T04:01:09;12.20;99.90
13892;DHT22;7016;48.172;8.058;2023-05-29T04:03:55;12.40;99.90
13892;DHT22;7016;48.172;8.058;2023-05-29T04:06:41;12.40;99.90
13892;DHT22;7016;48.172;8.058;2023-05-29T04:09:27;12.40;99.90
13892;DHT22;7016;48.172;8.058;2023-05-29T04:12:14;12.40;99.90
13892;DHT22;7016;48.172;8.058;2023-05-29T04:15:01;12.30;99.90
13892;DHT22;7016;48.172;8.058;2023-05-29T04:17:47;12.30;99.90
13892;DHT22;7016;48.172;8.058;2023-05-29T04:20:34;12.30;99.90
13892;DHT22;7016;48.172;8.058;2023-05-29T04:23:20;12.40;99.90
13892;DHT22;7016;48.172;8.058;2023-05-29T04:26:07;12.40;99.90
13892;DHT22;7016;48.172;8.058;2023-05-29T04:28:53;12.40;99.90
13892;DHT22;7016;48.172;8.058;2023-05-29T04:31:43;12.50;99.90
13892;DHT22;7016;48.172;8.058;2023-05-29T04:34:29;12.60;99.90
13892;DHT22;7016;48.172;8.058;2023-05-29T04:37:16;12.50;99.90
13892;DHT22;7016;48.172;8.058;2023-05-29T04:40:04;12.50;99.90
13892;DHT22;7016;48.172;8.058;2023-05-29T04:42:54;12.50;99.90
13892;DHT22;7016;48.172;8.058;2023-05-29T04:45:41;12.60;99.90
13892;DHT22;7016;48.172;8.058;2023-05-29T04:48:27;12.60;99.90
13892;DHT22;7016;48.172;8.058;2023-05-29T04:51:13;12.60;99.90
13892;DHT22;7016;48.172;8.058;2023-05-29T04:54:00;12.60;99.90
13892;DHT22;7016;48.172;8.058;2023-05-29T04:56:46;12.80;99.90
13892;DHT22;7016;48.172;8.058;2023-05-29T04:59:32;12.90;99.90
13892;DHT22;7016;48.172;8.058;2023-05-29T05:02:18;12.90;99.90
13892;DHT22;7016;48.172;8.058;2023-05-29T05:05:05;12.80;99.90
13892;DHT22;7016;48.172;8.058;2023-05-29T05:07:52;12.90;99.90
13892;DHT22;7016;48.172;8.058;2023-05-29T05:10:38;12.90;99.90
13892;DHT22;7016;48.172;8.058;2023-05-29T05:13:26;13.00;99.90
13892;DHT22;7016;48.172;8.058;2023-05-29T05:16:12;13.10;99.90
13892;DHT22;7016;48.172;8.058;2023-05-29T05:18:59;13.10;99.90
13892;DHT22;7016;48.172;8.058;2023-05-29T05:21:45;13.10;99.90
13892;DHT22;7016;48.172;8.058;2023-05-29T05:24:32;13.10;99.90
13892;DHT22;7016;48.172;8.058;2023-05-29T05:27:18;13.30;99.90
13892;DHT22;7016;48.172;8.058;2023-05-29T05:30:05;13.30;99.90
13892;DHT22;7016;48.172;8.058;2023-05-29T05:32:51;13.30;99.90
13892;DHT22;7016;48.172;8.058;2023-05-29T05:35:37;13.40;99.90
13892;DHT22;7016;48.172;8.058;2023-05-29T05:38:24;13.50;99.90
13892;DHT22;7016;48.172;8.058;2023-05-29T05:41:10;13.60;99.90
13892;DHT22;7016;48.172;8.058;2023-05-29T05:43:56;13.60;99.90
13892;DHT22;7016;48.172;8.058;2023-05-29T05:46:42;13.90;99.90
13892;DHT22;7016;48.172;8.058;2023-05-29T05:49:29;14.10;99.90
13892;DHT22;7016;48.172;8.058;2023-05-29T05:52:16;14.40;99.90
13892;DHT22;7016;48.172;8.058;2023-05-29T05:55:02;14.60;99.90
13892;DHT22;7016;48.172;8.058;2023-05-29T05:57:49;15.10;99.90
13892;DHT22;7016;48.172;8.058;2023-05-29T06:00:35;15.10;99.90
13892;DHT22;7016;48.172;8.058;2023-05-29T06:03:21;15.40;99.90
13892;DHT22;7016;48.172;8.058;2023-05-29T06:06:07;15.50;99.90
13892;DHT22;7016;48.172;8.058;2023-05-29T06:08:54;15.80;99.90
13892;DHT22;7016;48.172;8.058;2023-05-29T06:11:42;16.00;99.90
13892;DHT22;7016;48.172;8.058;2023-05-29T06:14:29;16.10;99.90
13892;DHT22;7016;48.172;8.058;2023-05-29T06:17:15;16.30;99.90
13892;DHT22;7016;48.172;8.058;2023-05-29T06:20:02;16.40;99.90
13892;DHT22;7016;48.172;8.058;2023-05-29T06:22:51;16.60;99.90
13892;DHT22;7016;48.172;8.058;2023-05-29T06:25:37;16.70;99.90
13892;DHT22;7016;48.172;8.058;2023-05-29T06:28:24;16.90;99.90
13892;DHT22;7016;48.172;8.058;2023-05-29T06:31:10;17.00;99.90
13892;DHT22;7016;48.172;8.058;2023-05-29T06:33:56;17.10;99.90
13892;DHT22;7016;48.172;8.058;2023-05-29T06:36:43;17.20;99.60
13892;DHT22;7016;48.172;8.058;2023-05-29T06:39:29;19.30;99.90
13892;DHT22;7016;48.172;8.058;2023-05-29T06:42:15;17.50;99.90
13892;DHT22;7016;48.172;8.058;2023-05-29T06:45:01;17.60;99.30
13892;DHT22;7016;48.172;8.058;2023-05-29T06:47:47;17.80;99.90
13892;DHT22;7016;48.172;8.058;2023-05-29T06:50:34;17.90;98.90
13892;DHT22;7016;48.172;8.058;2023-05-29T06:53:20;18.00;98.00
13892;DHT22;7016;48.172;8.058;2023-05-29T06:56:07;18.10;98.10
13892;DHT22;7016;48.172;8.058;2023-05-29T06:58:53;18.30;97.50
13892;DHT22;7016;48.172;8.058;2023-05-29T07:01:39;18.30;97.30
13892;DHT22;7016;48.172;8.058;2023-05-29T07:04:25;18.50;98.00
13892;DHT22;7016;48.172;8.058;2023-05-29T07:07:11;18.70;98.20
13892;DHT22;7016;48.172;8.058;2023-05-29T07:09:58;18.70;98.50
13892;DHT22;7016;48.172;8.058;2023-05-29T07:12:44;18.90;97.20
13892;DHT22;7016;48.172;8.058;2023-05-29T07:15:30;19.00;97.20
13892;DHT22;7016;48.172;8.058;2023-05-29T07:18:16;19.00;95.80
13892;DHT22;7016;48.172;8.058;2023-05-29T07:21:03;19.10;96.30
13892;DHT22;7016;48.172;8.058;2023-05-29T07:23:49;19.20;96.50
13892;DHT22;7016;48.172;8.058;2023-05-29T07:26:35;19.30;96.10
13892;DHT22;7016;48.172;8.058;2023-05-29T07:29:21;19.40;96.50
13892;DHT22;7016;48.172;8.058;2023-05-29T07:32:09;19.50;96.40
13892;DHT22;7016;48.172;8.058;2023-05-29T07:34:55;19.60;97.00
13892;DHT22;7016;48.172;8.058;2023-05-29T07:37:42;19.70;94.90
13892;DHT22;7016;48.172;8.058;2023-05-29T07:40:28;19.80;95.10
13892;DHT22;7016;48.172;8.058;2023-05-29T07:43:14;19.90;95.20
13892;DHT22;7016;48.172;8.058;2023-05-29T07:46:00;20.00;95.90
13892;DHT22;7016;48.172;8.058;2023-05-29T07:48:47;20.10;96.10
13892;DHT22;7016;48.172;8.058;2023-05-29T07:51:42;20.20;94.90
13892;DHT22;7016;48.172;8.058;2023-05-29T07:54:34;20.40;96.40
13892;DHT22;7016;48.172;8.058;2023-05-29T07:57:20;20.60;94.80
13892;DHT22;7016;48.172;8.058;2023-05-29T08:00:06;20.60;94.80
13892;DHT22;7016;48.172;8.058;2023-05-29T08:02:54;20.70;94.90
13892;DHT22;7016;48.172;8.058;2023-05-29T08:05:40;20.80;93.50
13892;DHT22;7016;48.172;8.058;2023-05-29T08:08:26;21.00;93.00
13892;DHT22;7016;48.172;8.058;2023-05-29T08:11:12;21.00;92.40
13892;DHT22;7016;48.172;8.058;2023-05-29T08:13:58;21.00;92.90
13892;DHT22;7016;48.172;8.058;2023-05-29T08:16:45;21.20;93.20
13892;DHT22;7016;48.172;8.058;2023-05-29T08:19:31;21.10;92.30
13892;DHT22;7016;48.172;8.058;2023-05-29T08:22:17;21.30;92.50
13892;DHT22;7016;48.172;8.058;2023-05-29T08:25:04;21.30;93.00
13892;DHT22;7016;48.172;8.058;2023-05-29T08:27:51;21.40;91.50
13892;DHT22;7016;48.172;8.058;2023-05-29T08:30:37;21.40;92.20
13892;DHT22;7016;48.172;8.058;2023-05-29T08:33:23;21.40;91.60
13892;DHT22;7016;48.172;8.058;2023-05-29T08:36:10;21.50;91.50
13892;DHT22;7016;48.172;8.058;2023-05-29T08:38:56;21.70;90.80
13892;DHT22;7016;48.172;8.058;2023-05-29T08:44:47;21.70;90.20
13892;DHT22;7016;48.172;8.058;2023-05-29T08:47:36;21.80;89.40
13892;DHT22;7016;48.172;8.058;2023-05-29T08:50:22;21.90;89.30
13892;DHT22;7016;48.172;8.058;2023-05-29T08:53:10;22.10;89.10
13892;DHT22;7016;48.172;8.058;2023-05-29T08:55:57;22.10;82.50
13892;DHT22;7016;48.172;8.058;2023-05-29T08:58:44;22.20;81.50
13892;DHT22;7016;48.172;8.058;2023-05-29T09:01:31;22.30;81.50
13892;DHT22;7016;48.172;8.058;2023-05-29T09:04:17;22.30;80.80
13892;DHT22;7016;48.172;8.058;2023-05-29T09:07:04;22.30;78.60
13892;DHT22;7016;48.172;8.058;2023-05-29T09:09:51;22.30;80.70
13892;DHT22;7016;48.172;8.058;2023-05-29T09:12:37;22.40;81.30
13892;DHT22;7016;48.172;8.058;2023-05-29T09:15:25;22.60;79.70
13892;DHT22;7016;48.172;8.058;2023-05-29T09:18:12;22.60;80.50
13892;DHT22;7016;48.172;8.058;2023-05-29T09:20:59;22.70;80.90
13892;DHT22;7016;48.172;8.058;2023-05-29T09:23:45;22.60;79.00
13892;DHT22;7016;48.172;8.058;2023-05-29T09:26:33;22.70;79.20
13892;DHT22;7016;48.172;8.058;2023-05-29T09:29:19;22.80;80.10
13892;DHT22;7016;48.172;8.058;2023-05-29T09:32:11;22.90;80.30
13892;DHT22;7016;48.172;8.058;2023-05-29T09:35:00;22.90;80.40
13892;DHT22;7016;48.172;8.058;2023-05-29T09:37:47;22.90;73.30
13892;DHT22;7016;48.172;8.058;2023-05-29T09:40:35;22.90;73.40
13892;DHT22;7016;48.172;8.058;2023-05-29T09:43:22;22.90;73.70
13892;DHT22;7016;48.172;8.058;2023-05-29T09:46:15;23.00;72.50
13892;DHT22;7016;48.172;8.058;2023-05-29T09:49:10;23.10;73.00
13892;DHT22;7016;48.172;8.058;2023-05-29T09:51:56;23.10;72.70
13892;DHT22;7016;48.172;8.058;2023-05-29T09:54:45;23.20;74.40
13892;DHT22;7016;48.172;8.058;2023-05-29T09:57:31;23.20;70.60
13892;DHT22;7016;48.172;8.058;2023-05-29T10:00:18;23.20;70.70
13892;DHT22;7016;48.172;8.058;2023-05-29T10:03:04;23.20;69.30
13892;DHT22;7016;48.172;8.058;2023-05-29T10:05:52;23.30;70.70
13892;DHT22;7016;48.172;8.058;2023-05-29T10:08:46;23.40;70.50
13892;DHT22;7016;48.172;8.058;2023-05-29T10:11:38;23.30;69.60
13892;DHT22;7016;48.172;8.058;2023-05-29T10:14:28;23.30;69.90
13892;DHT22;7016;48.172;8.058;2023-05-29T10:17:22;23.50;69.90
13892;DHT22;7016;48.172;8.058;2023-05-29T10:20:11;23.50;70.60
13892;DHT22;7016;48.172;8.058;2023-05-29T10:23:00;23.60;71.30
13892;DHT22;7016;48.172;8.058;2023-05-29T10:25:53;23.70;74.50
13892;DHT22;7016;48.172;8.058;2023-05-29T10:28:48;23.50;69.10
13892;DHT22;7016;48.172;8.058;2023-05-29T10:35:06;23.80;74.20
13892;DHT22;7016;48.172;8.058;2023-05-29T10:38:09;23.90;69.40
13892;DHT22;7016;48.172;8.058;2023-05-29T10:40:56;24.00;71.80
13892;DHT22;7016;48.172;8.058;2023-05-29T10:43:45;23.70;67.60
13892;DHT22;7016;48.172;8.058;2023-05-29T10:49:34;23.90;70.60
13892;DHT22;7016;48.172;8.058;2023-05-29T10:52:20;23.90;68.00
13892;DHT22;7016;48.172;8.058;2023-05-29T10:55:07;24.00;67.30
13892;DHT22;7016;48.172;8.058;2023-05-29T10:57:56;24.00;67.30
13892;DHT22;7016;48.172;8.058;2023-05-29T11:00:45;24.00;70.50
13892;DHT22;7016;48.172;8.058;2023-05-29T11:03:34;24.10;71.20
13892;DHT22;7016;48.172;8.058;2023-05-29T11:06:21;24.10;69.20
13892;DHT22;7016;48.172;8.058;2023-05-29T11:09:33;24.10;71.70
13892;DHT22;7016;48.172;8.058;2023-05-29T11:12:24;24.20;71.20
13892;DHT22;7016;48.172;8.058;2023-05-29T11:15:18;24.30;70.60
13892;DHT22;7016;48.172;8.058;2023-05-29T11:18:08;24.20;72.60
13892;DHT22;7016;48.172;8.058;2023-05-29T11:21:02;24.20;73.30
13892;DHT22;7016;48.172;8.058;2023-05-29T11:23:52;24.20;72.80
13892;DHT22;7016;48.172;8.058;2023-05-29T11:26:38;24.40;70.90
13892;DHT22;7016;48.172;8.058;2023-05-29T11:29:27;24.40;70.00
13892;DHT22;7016;48.172;8.058;2023-05-29T11:32:14;24.40;71.00
13892;DHT22;7016;48.172;8.058;2023-05-29T11:35:08;24.60;72.50
13892;DHT22;7016;48.172;8.058;2023-05-29T11:37:54;24.50;71.20
13892;DHT22;7016;48.172;8.058;2023-05-29T11:40:42;24.40;71.90
13892;DHT22;7016;48.172;8.058;2023-05-29T11:43:28;24.50;71.20
13892;DHT22;7016;48.172;8.058;2023-05-29T11:46:18;24.40;71.20
13892;DHT22;7016;48.172;8.058;2023-05-29T11:49:05;24.50;71.80
13892;DHT22;7016;48.172;8.058;2023-05-29T11:51:51;24.60;71.20
13892;DHT22;7016;48.172;8.058;2023-05-29T11:54:38;24.70;73.10
13892;DHT22;7016;48.172;8.058;2023-05-29T11:57:25;24.70;72.70
13892;DHT22;7016;48.172;8.058;2023-05-29T12:00:15;24.70;73.70
13892;DHT22;7016;48.172;8.058;2023-05-29T12:03:03;24.80;72.00
13892;DHT22;7016;48.172;8.058;2023-05-29T12:05:50;24.70;70.60
13892;DHT22;7016;48.172;8.058;2023-05-29T12:08:39;24.80;72.30
13892;DHT22;7016;48.172;8.058;2023-05-29T12:11:25;24.90;72.40
13892;DHT22;7016;48.172;8.058;2023-05-29T12:14:12;24.70;69.30
13892;DHT22;7016;48.172;8.058;2023-05-29T12:16:58;24.80;71.60
13892;DHT22;7016;48.172;8.058;2023-05-29T12:19:44;24.80;68.90
13892;DHT22;7016;48.172;8.058;2023-05-29T12:22:35;24.80;71.80
13892;DHT22;7016;48.172;8.058;2023-05-29T12:25:22;24.90;73.10
13892;DHT22;7016;48.172;8.058;2023-05-29T12:28:08;25.00;71.40
13892;DHT22;7016;48.172;8.058;2023-05-29T12:30:59;24.90;69.40
13892;DHT22;7016;48.172;8.058;2023-05-29T12:33:45;24.90;68.70
13892;DHT22;7016;48.172;8.058;2023-05-29T12:36:32;25.00;70.00
13892;DHT22;7016;48.172;8.058;2023-05-29T12:39:18;25.00;68.20
13892;DHT22;7016;48.172;8.058;2023-05-29T12:42:05;25.00;68.70
13892;DHT22;7016;48.172;8.058;2023-05-29T12:44:51;24.90;69.60
13892;DHT22;7016;48.172;8.058;2023-05-29T12:47:43;25.00;70.40
13892;DHT22;7016;48.172;8.058;2023-05-29T12:50:39;25.10;67.70
13892;DHT22;7016;48.172;8.058;2023-05-29T12:53:28;25.00;68.00
13892;DHT22;7016;48.172;8.058;2023-05-29T12:56:16;25.10;68.60
13892;DHT22;7016;48.172;8.058;2023-05-29T12:59:02;25.20;66.10
13892;DHT22;7016;48.172;8.058;2023-05-29T13:01:48;25.20;68.10
13892;DHT22;7016;48.172;8.058;2023-05-29T13:04:34;25.20;70.10
13892;DHT22;7016;48.172;8.058;2023-05-29T13:07:21;25.40;68.80
13892;DHT22;7016;48.172;8.058;2023-05-29T13:10:07;25.40;69.70
13892;DHT22;7016;48.172;8.058;2023-05-29T13:12:54;25.50;68.10
13892;DHT22;7016;48.172;8.058;2023-05-29T13:15:41;25.40;65.00
13892;DHT22;7016;48.172;8.058;2023-05-29T13:18:27;25.30;68.40
13892;DHT22;7016;48.172;8.058;2023-05-29T13:21:13;25.40;70.60
13892;DHT22;7016;48.172;8.058;2023-05-29T13:23:59;25.40;66.80
13892;DHT22;7016;48.172;8.058;2023-05-29T13:26:46;25.40;69.20
13892;DHT22;7016;48.172;8.058;2023-05-29T13:29:32;25.20;70.70
13892;DHT22;7016;48.172;8.058;2023-05-29T13:32:19;25.20;67.20
13892;DHT22;7016;48.172;8.058;2023-05-29T13:35:05;25.20;70.80
13892;DHT22;7016;48.172;8.058;2023-05-29T13:37:52;25.10;68.40
13892;DHT22;7016;48.172;8.058;2023-05-29T13:40:38;25.00;69.70
13892;DHT22;7016;48.172;8.058;2023-05-29T13:43:24;25.20;69.40
13892;DHT22;7016;48.172;8.058;2023-05-29T13:46:11;25.20;68.60
13892;DHT22;7016;48.172;8.058;2023-05-29T13:48:57;25.20;66.00
13892;DHT22;7016;48.172;8.058;2023-05-29T13:51:43;25.20;65.80
13892;DHT22;7016;48.172;8.058;2023-05-29T13:54:31;25.30;68.40
13892;DHT22;7016;48.172;8.058;2023-05-29T13:57:21;25.30;68.20
13892;DHT22;7016;48.172;8.058;2023-05-29T14:00:07;25.30;68.60
13892;DHT22;7016;48.172;8.058;2023-05-29T14:02:54;25.20;70.40
13892;DHT22;7016;48.172;8.058;2023-05-29T14:05:40;25.20;71.30
13892;DHT22;7016;48.172;8.058;2023-05-29T14:08:26;25.20;71.10
13892;DHT22;7016;48.172;8.058;2023-05-29T14:11:12;25.20;69.90
13892;DHT22;7016;48.172;8.058;2023-05-29T14:13:59;25.10;70.80
13892;DHT22;7016;48.172;8.058;2023-05-29T14:16:45;25.10;70.90
13892;DHT22;7016;48.172;8.058;2023-05-29T14:19:31;25.10;68.80
13892;DHT22;7016;48.172;8.058;2023-05-29T14:22:17;25.10;69.30
13892;DHT22;7016;48.172;8.058;2023-05-29T14:25:04;25.20;70.60
13892;DHT22;7016;48.172;8.058;2023-05-29T14:27:50;25.40;71.00
13892;DHT22;7016;48.172;8.058;2023-05-29T14:30:38;25.30;69.20
13892;DHT22;7016;48.172;8.058;2023-05-29T14:33:24;25.30;68.10
13892;DHT22;7016;48.172;8.058;2023-05-29T14:36:10;25.30;69.70
13892;DHT22;7016;48.172;8.058;2023-05-29T14:38:57;25.30;68.30
13892;DHT22;7016;48.172;8.058;2023-05-29T14:41:43;25.20;67.20
13892;DHT22;7016;48.172;8.058;2023-05-29T14:44:29;25.10;67.10
13892;DHT22;7016;48.172;8.058;2023-05-29T14:47:15;25.10;66.30
13892;DHT22;7016;48.172;8.058;2023-05-29T14:50:04;25.10;66.30
13892;DHT22;7016;48.172;8.058;2023-05-29T14:52:51;25.00;66.00
13892;DHT22;7016;48.172;8.058;2023-05-29T14:55:37;25.00;67.50
13892;DHT22;7016;48.172;8.058;2023-05-29T14:58:23;25.10;68.10
13892;DHT22;7016;48.172;8.058;2023-05-29T15:01:09;25.20;65.60
13892;DHT22;7016;48.172;8.058;2023-05-29T15:03:56;25.10;63.10
13892;DHT22;7016;48.172;8.058;2023-05-29T15:06:42;25.10;63.90
13892;DHT22;7016;48.172;8.058;2023-05-29T15:09:28;25.10;64.80
13892;DHT22;7016;48.172;8.058;2023-05-29T15:12:14;25.20;66.40
13892;DHT22;7016;48.172;8.058;2023-05-29T15:15:02;25.20;66.90
13892;DHT22;7016;48.172;8.058;2023-05-29T15:17:49;25.10;65.10
13892;DHT22;7016;48.172;8.058;2023-05-29T15:20:39;25.10;66.70
13892;DHT22;7016;48.172;8.058;2023-05-29T15:23:25;25.20;66.90
13892;DHT22;7016;48.172;8.058;2023-05-29T15:26:12;25.20;67.40
13892;DHT22;7016;48.172;8.058;2023-05-29T15:28:58;25.40;65.70
13892;DHT22;7016;48.172;8.058;2023-05-29T15:31:44;25.20;66.70
13892;DHT22;7016;48.172;8.058;2023-05-29T15:34:30;25.20;67.40
13892;DHT22;7016;48.172;8.058;2023-05-29T15:37:16;25.20;67.40
13892;DHT22;7016;48.172;8.058;2023-05-29T15:40:03;25.00;65.60
13892;DHT22;7016;48.172;8.058;2023-05-29T15:42:49;25.10;66.60
13892;DHT22;7016;48.172;8.058;2023-05-29T15:45:36;25.10;64.70
13892;DHT22;7016;48.172;8.058;2023-05-29T15:48:23;25.00;65.00
13892;DHT22;7016;48.172;8.058;2023-05-29T15:51:09;25.00;65.00
13892;DHT22;7016;48.172;8.058;2023-05-29T15:53:56;25.00;65.00
13892;DHT22;7016;48.172;8.058;2023-05-29T15:56:43;24.90;65.20
13892;DHT22;7016;48.172;8.058;2023-05-29T15:59:29;25.00;65.50
13892;DHT22;7016;48.172;8.058;2023-05-29T16:02:16;24.90;63.80
13892;DHT22;7016;48.172;8.058;2023-05-29T16:05:02;24.90;63.80
13892;DHT22;7016;48.172;8.058;2023-05-29T16:07:48;24.90;62.40
13892;DHT22;7016;48.172;8.058;2023-05-29T16:10:34;24.80;62.80
13892;DHT22;7016;48.172;8.058;2023-05-29T16:13:21;24.70;61.10
13892;DHT22;7016;48.172;8.058;2023-05-29T16:16:07;24.70;62.10
13892;DHT22;7016;48.172;8.058;2023-05-29T16:18:53;24.70;62.20
13892;DHT22;7016;48.172;8.058;2023-05-29T16:21:40;24.70;63.60
13892;DHT22;7016;48.172;8.058;2023-05-29T16:24:26;24.80;63.20
13892;DHT22;7016;48.172;8.058;2023-05-29T16:27:13;24.90;62.30
13892;DHT22;7016;48.172;8.058;2023-05-29T16:30:00;24.80;63.10
13892;DHT22;7016;48.172;8.058;2023-05-29T16:32:46;24.80;63.70
13892;DHT22;7016;48.172;8.058;2023-05-29T16:35:32;24.80;63.30
13892;DHT22;7016;48.172;8.058;2023-05-29T16:38:19;24.80;62.60
13892;DHT22;7016;48.172;8.058;2023-05-29T16:41:05;24.80;64.50
13892;DHT22;7016;48.172;8.058;2023-05-29T16:43:51;24.80;62.50
13892;DHT22;7016;48.172;8.058;2023-05-29T16:46:37;24.80;62.80
13892;DHT22;7016;48.172;8.058;2023-05-29T16:49:23;24.80;63.70
13892;DHT22;7016;48.172;8.058;2023-05-29T16:52:11;24.70;63.10
13892;DHT22;7016;48.172;8.058;2023-05-29T16:54:58;24.60;61.00
13892;DHT22;7016;48.172;8.058;2023-05-29T16:57:47;24.50;57.90
13892;DHT22;7016;48.172;8.058;2023-05-29T17:00:33;24.50;58.60
13892;DHT22;7016;48.172;8.058;2023-05-29T17:03:19;24.50;59.20
13892;DHT22;7016;48.172;8.058;2023-05-29T17:06:06;24.40;58.50
13892;DHT22;7016;48.172;8.058;2023-05-29T17:08:52;24.40;58.10
13892;DHT22;7016;48.172;8.058;2023-05-29T17:11:38;23.10;56.90
13892;DHT22;7016;48.172;8.058;2023-05-29T17:14:25;24.30;58.60
13892;DHT22;7016;48.172;8.058;2023-05-29T17:17:11;24.30;59.90
13892;DHT22;7016;48.172;8.058;2023-05-29T17:19:57;24.20;60.00
13892;DHT22;7016;48.172;8.058;2023-05-29T17:22:44;24.30;60.30
13892;DHT22;7016;48.172;8.058;2023-05-29T17:25:30;24.30;60.90
13892;DHT22;7016;48.172;8.058;2023-05-29T17:28:16;24.20;61.90
13892;DHT22;7016;48.172;8.058;2023-05-29T17:31:02;24.20;62.70
13892;DHT22;7016;48.172;8.058;2023-05-29T17:33:49;24.10;60.60
13892;DHT22;7016;48.172;8.058;2023-05-29T17:36:35;24.20;60.40
13892;DHT22;7016;48.172;8.058;2023-05-29T17:39:21;24.00;58.70
13892;DHT22;7016;48.172;8.058;2023-05-29T17:42:08;24.00;58.40
13892;DHT22;7016;48.172;8.058;2023-05-29T17:44:54;24.00;59.10
13892;DHT22;7016;48.172;8.058;2023-05-29T17:47:41;24.00;59.40
13892;DHT22;7016;48.172;8.058;2023-05-29T17:50:28;24.00;59.90
13892;DHT22;7016;48.172;8.058;2023-05-29T17:53:14;23.90;59.70
13892;DHT22;7016;48.172;8.058;2023-05-29T17:56:00;23.80;60.10
13892;DHT22;7016;48.172;8.058;2023-05-29T17:58:47;23.80;59.70
13892;DHT22;7016;48.172;8.058;2023-05-29T18:01:35;23.90;60.60